Terminal Aerodrome Forecast
Issued by NWS

Home | Current Version | Previous Version | Text Only | Print | Product List | Glossary On
Versions: 1 2 3 4 5 6 7 8 9 10 11 12 13 14 15 16 17 18 19 20 21 22 23 24 25 26 27 28 29 30 31 32 33
000
FTUS43 KLOT 301400 AAA
TAFDPA
TAF AMD
KDPA 301417Z 3014/3112 21012KT P6SM BKN013 OVC017
     FM301600 22012G18KT P6SM BKN025
     FM310000 23008KT P6SM SCT250
     FM310500 VRB03KT 4SM BR SCT007
     FM310700 VRB03KT 2SM BR BKN015
      TEMPO 3108/3112 BKN007=

USA.gov is the U.S. government's official web portal to all federal, state and local government web resources and services.